sensor_id;sensor_type;location;lat;lon;timestamp;P1;durP1;ratioP1;P2;durP2;ratioP2
36391;SDS011;22639;42.690;23.356;2023-05-10T00:00:34;4.80;;;3.47;;
36391;SDS011;22639;42.690;23.356;2023-05-10T00:02:59;6.57;;;4.20;;
36391;SDS011;22639;42.690;23.356;2023-05-10T00:05:26;6.63;;;4.47;;
36391;SDS011;22639;42.690;23.356;2023-05-10T00:07:51;4.30;;;3.30;;
36391;SDS011;22639;42.690;23.356;2023-05-10T00:10:16;7.17;;;5.10;;
36391;SDS011;22639;42.690;23.356;2023-05-10T00:12:42;6.93;;;4.57;;
36391;SDS011;22639;42.690;23.356;2023-05-10T00:15:07;8.67;;;6.23;;
36391;SDS011;22639;42.690;23.356;2023-05-10T00:17:33;4.50;;;4.07;;
36391;SDS011;22639;42.690;23.356;2023-05-10T00:19:58;6.27;;;5.10;;
36391;SDS011;22639;42.690;23.356;2023-05-10T00:22:23;7.30;;;5.57;;
36391;SDS011;22639;42.690;23.356;2023-05-10T00:24:48;9.73;;;6.67;;
36391;SDS011;22639;42.690;23.356;2023-05-10T00:27:14;7.87;;;5.87;;
36391;SDS011;22639;42.690;23.356;2023-05-10T00:29:39;6.30;;;4.90;;
36391;SDS011;22639;42.690;23.356;2023-05-10T00:32:04;8.37;;;6.07;;
36391;SDS011;22639;42.690;23.356;2023-05-10T00:34:29;5.70;;;4.37;;
36391;SDS011;22639;42.690;23.356;2023-05-10T00:36:56;10.97;;;7.23;;
36391;SDS011;22639;42.690;23.356;2023-05-10T00:39:22;11.03;;;6.70;;
36391;SDS011;22639;42.690;23.356;2023-05-10T00:41:47;5.67;;;4.70;;
36391;SDS011;22639;42.690;23.356;2023-05-10T00:44:12;13.00;;;8.60;;
36391;SDS011;22639;42.690;23.356;2023-05-10T00:46:38;12.47;;;8.27;;
36391;SDS011;22639;42.690;23.356;2023-05-10T00:49:03;14.47;;;11.40;;
36391;SDS011;22639;42.690;23.356;2023-05-10T00:51:29;13.23;;;9.33;;
36391;SDS011;22639;42.690;23.356;2023-05-10T00:53:54;9.20;;;8.00;;
36391;SDS011;22639;42.690;23.356;2023-05-10T00:56:20;9.30;;;8.27;;
36391;SDS011;22639;42.690;23.356;2023-05-10T00:58:48;12.07;;;7.97;;
36391;SDS011;22639;42.690;23.356;2023-05-10T01:01:13;11.53;;;7.90;;
36391;SDS011;22639;42.690;23.356;2023-05-10T01:03:38;14.87;;;11.27;;
36391;SDS011;22639;42.690;23.356;2023-05-10T01:06:04;10.13;;;8.73;;
36391;SDS011;22639;42.690;23.356;2023-05-10T01:08:30;10.07;;;6.53;;
36391;SDS011;22639;42.690;23.356;2023-05-10T01:10:55;9.60;;;6.30;;
36391;SDS011;22639;42.690;23.356;2023-05-10T01:13:42;6.93;;;5.90;;
36391;SDS011;22639;42.690;23.356;2023-05-10T01:16:07;7.73;;;5.43;;
36391;SDS011;22639;42.690;23.356;2023-05-10T01:18:39;8.43;;;5.90;;
36391;SDS011;22639;42.690;23.356;2023-05-10T01:21:23;5.77;;;4.60;;
36391;SDS011;22639;42.690;23.356;2023-05-10T01:26:50;5.50;;;4.20;;
36391;SDS011;22639;42.690;23.356;2023-05-10T01:34:21;8.07;;;4.40;;
36391;SDS011;22639;42.690;23.356;2023-05-10T01:36:51;5.73;;;5.10;;
36391;SDS011;22639;42.690;23.356;2023-05-10T01:39:32;5.90;;;4.33;;
36391;SDS011;22639;42.690;23.356;2023-05-10T01:44:34;6.03;;;4.70;;
36391;SDS011;22639;42.690;23.356;2023-05-10T01:47:05;4.77;;;4.13;;
36391;SDS011;22639;42.690;23.356;2023-05-10T01:49:32;7.03;;;4.27;;
36391;SDS011;22639;42.690;23.356;2023-05-10T01:51:59;7.00;;;4.50;;
36391;SDS011;22639;42.690;23.356;2023-05-10T01:54:25;4.03;;;3.43;;
36391;SDS011;22639;42.690;23.356;2023-05-10T01:56:55;5.93;;;3.60;;
36391;SDS011;22639;42.690;23.356;2023-05-10T01:59:23;4.10;;;3.13;;
36391;SDS011;22639;42.690;23.356;2023-05-10T02:01:51;6.10;;;3.80;;
36391;SDS011;22639;42.690;23.356;2023-05-10T02:04:17;4.57;;;3.70;;
36391;SDS011;22639;42.690;23.356;2023-05-10T02:06:44;5.23;;;4.73;;
36391;SDS011;22639;42.690;23.356;2023-05-10T02:09:10;4.30;;;3.50;;
36391;SDS011;22639;42.690;23.356;2023-05-10T02:11:37;7.73;;;4.40;;
36391;SDS011;22639;42.690;23.356;2023-05-10T02:14:03;6.23;;;4.17;;
36391;SDS011;22639;42.690;23.356;2023-05-10T02:16:28;5.17;;;4.07;;
36391;SDS011;22639;42.690;23.356;2023-05-10T02:18:55;7.77;;;4.43;;
36391;SDS011;22639;42.690;23.356;2023-05-10T02:21:22;6.20;;;3.80;;
36391;SDS011;22639;42.690;23.356;2023-05-10T02:23:48;6.90;;;4.80;;
36391;SDS011;22639;42.690;23.356;2023-05-10T02:26:15;2.80;;;2.27;;
36391;SDS011;22639;42.690;23.356;2023-05-10T02:28:40;7.77;;;5.43;;
36391;SDS011;22639;42.690;23.356;2023-05-10T02:31:07;6.97;;;5.23;;
36391;SDS011;22639;42.690;23.356;2023-05-10T02:33:34;3.77;;;2.27;;
36391;SDS011;22639;42.690;23.356;2023-05-10T02:36:00;5.50;;;4.37;;
36391;SDS011;22639;42.690;23.356;2023-05-10T02:38:26;7.77;;;4.53;;
36391;SDS011;22639;42.690;23.356;2023-05-10T02:40:51;12.07;;;5.40;;
36391;SDS011;22639;42.690;23.356;2023-05-10T02:43:17;4.13;;;3.73;;
36391;SDS011;22639;42.690;23.356;2023-05-10T02:45:43;5.83;;;4.03;;
36391;SDS011;22639;42.690;23.356;2023-05-10T02:48:11;2.03;;;1.60;;
36391;SDS011;22639;42.690;23.356;2023-05-10T02:50:37;5.37;;;4.10;;
36391;SDS011;22639;42.690;23.356;2023-05-10T02:53:06;7.87;;;4.90;;
36391;SDS011;22639;42.690;23.356;2023-05-10T02:55:38;4.90;;;3.37;;
36391;SDS011;22639;42.690;23.356;2023-05-10T02:58:03;5.33;;;3.23;;
36391;SDS011;22639;42.690;23.356;2023-05-10T03:00:29;5.00;;;3.90;;
36391;SDS011;22639;42.690;23.356;2023-05-10T03:02:54;5.07;;;3.97;;
36391;SDS011;22639;42.690;23.356;2023-05-10T03:05:20;6.57;;;3.83;;
36391;SDS011;22639;42.690;23.356;2023-05-10T03:07:45;3.03;;;2.73;;
36391;SDS011;22639;42.690;23.356;2023-05-10T03:10:11;3.43;;;3.10;;
36391;SDS011;22639;42.690;23.356;2023-05-10T03:17:33;6.23;;;4.07;;
36391;SDS011;22639;42.690;23.356;2023-05-10T03:20:05;9.77;;;6.37;;
36391;SDS011;22639;42.690;23.356;2023-05-10T03:22:34;8.07;;;4.43;;
36391;SDS011;22639;42.690;23.356;2023-05-10T03:25:02;4.10;;;3.70;;
36391;SDS011;22639;42.690;23.356;2023-05-10T03:27:30;3.57;;;2.67;;
36391;SDS011;22639;42.690;23.356;2023-05-10T03:29:56;4.30;;;3.70;;
36391;SDS011;22639;42.690;23.356;2023-05-10T03:32:22;4.23;;;3.83;;
36391;SDS011;22639;42.690;23.356;2023-05-10T03:34:47;4.47;;;3.67;;
36391;SDS011;22639;42.690;23.356;2023-05-10T03:37:12;5.30;;;4.60;;
36391;SDS011;22639;42.690;23.356;2023-05-10T03:39:38;4.03;;;3.73;;
36391;SDS011;22639;42.690;23.356;2023-05-10T03:42:03;5.40;;;4.67;;
36391;SDS011;22639;42.690;23.356;2023-05-10T03:44:28;5.90;;;3.63;;
36391;SDS011;22639;42.690;23.356;2023-05-10T03:46:54;6.20;;;4.80;;
36391;SDS011;22639;42.690;23.356;2023-05-10T03:49:19;5.23;;;3.93;;
36391;SDS011;22639;42.690;23.356;2023-05-10T03:51:44;5.10;;;3.33;;
36391;SDS011;22639;42.690;23.356;2023-05-10T03:54:09;4.87;;;3.43;;
36391;SDS011;22639;42.690;23.356;2023-05-10T03:56:35;5.47;;;3.57;;
36391;SDS011;22639;42.690;23.356;2023-05-10T03:59:00;4.23;;;3.57;;
36391;SDS011;22639;42.690;23.356;2023-05-10T04:01:25;6.00;;;4.30;;
36391;SDS011;22639;42.690;23.356;2023-05-10T04:03:51;4.60;;;3.73;;
36391;SDS011;22639;42.690;23.356;2023-05-10T04:06:16;4.20;;;2.03;;
36391;SDS011;22639;42.690;23.356;2023-05-10T04:08:41;5.27;;;3.70;;
36391;SDS011;22639;42.690;23.356;2023-05-10T04:11:07;7.13;;;5.07;;
36391;SDS011;22639;42.690;23.356;2023-05-10T04:13:32;6.43;;;3.83;;
36391;SDS011;22639;42.690;23.356;2023-05-10T04:15:58;7.57;;;4.43;;
36391;SDS011;22639;42.690;23.356;2023-05-10T04:18:23;4.93;;;3.77;;
36391;SDS011;22639;42.690;23.356;2023-05-10T04:20:48;4.13;;;3.73;;
36391;SDS011;22639;42.690;23.356;2023-05-10T04:23:14;4.37;;;3.37;;
36391;SDS011;22639;42.690;23.356;2023-05-10T04:25:41;4.67;;;3.80;;
36391;SDS011;22639;42.690;23.356;2023-05-10T04:28:06;3.33;;;2.93;;
36391;SDS011;22639;42.690;23.356;2023-05-10T04:30:32;5.23;;;4.47;;
36391;SDS011;22639;42.690;23.356;2023-05-10T04:32:59;4.77;;;3.23;;
36391;SDS011;22639;42.690;23.356;2023-05-10T04:35:25;4.93;;;3.30;;
36391;SDS011;22639;42.690;23.356;2023-05-10T04:37:50;4.20;;;3.70;;
36391;SDS011;22639;42.690;23.356;2023-05-10T04:40:15;5.00;;;4.20;;
36391;SDS011;22639;42.690;23.356;2023-05-10T04:42:40;4.23;;;3.70;;
36391;SDS011;22639;42.690;23.356;2023-05-10T04:45:09;4.83;;;3.30;;
36391;SDS011;22639;42.690;23.356;2023-05-10T04:47:34;5.33;;;3.70;;
36391;SDS011;22639;42.690;23.356;2023-05-10T04:50:00;4.47;;;3.20;;
36391;SDS011;22639;42.690;23.356;2023-05-10T04:52:26;5.43;;;3.30;;
36391;SDS011;22639;42.690;23.356;2023-05-10T04:54:51;4.20;;;3.03;;
36391;SDS011;22639;42.690;23.356;2023-05-10T04:57:17;7.03;;;3.00;;
36391;SDS011;22639;42.690;23.356;2023-05-10T04:59:42;4.53;;;2.70;;
36391;SDS011;22639;42.690;23.356;2023-05-10T05:02:07;5.63;;;3.87;;
36391;SDS011;22639;42.690;23.356;2023-05-10T05:04:33;5.17;;;3.60;;
36391;SDS011;22639;42.690;23.356;2023-05-10T05:06:58;4.80;;;3.07;;
36391;SDS011;22639;42.690;23.356;2023-05-10T05:09:24;7.70;;;4.67;;
36391;SDS011;22639;42.690;23.356;2023-05-10T05:11:50;7.47;;;4.07;;
36391;SDS011;22639;42.690;23.356;2023-05-10T05:14:15;4.97;;;3.37;;
36391;SDS011;22639;42.690;23.356;2023-05-10T05:16:41;5.07;;;4.00;;
36391;SDS011;22639;42.690;23.356;2023-05-10T05:19:06;4.13;;;3.43;;
36391;SDS011;22639;42.690;23.356;2023-05-10T05:21:33;5.00;;;3.67;;
36391;SDS011;22639;42.690;23.356;2023-05-10T05:23:58;4.77;;;3.67;;
36391;SDS011;22639;42.690;23.356;2023-05-10T05:26:23;5.80;;;4.20;;
36391;SDS011;22639;42.690;23.356;2023-05-10T05:28:49;6.03;;;4.33;;
36391;SDS011;22639;42.690;23.356;2023-05-10T05:31:18;4.57;;;3.63;;
36391;SDS011;22639;42.690;23.356;2023-05-10T05:33:45;6.40;;;5.07;;
36391;SDS011;22639;42.690;23.356;2023-05-10T05:36:10;6.97;;;4.57;;
36391;SDS011;22639;42.690;23.356;2023-05-10T05:38:36;3.97;;;3.23;;
36391;SDS011;22639;42.690;23.356;2023-05-10T05:41:01;7.17;;;4.07;;
36391;SDS011;22639;42.690;23.356;2023-05-10T05:43:27;8.00;;;5.17;;
36391;SDS011;22639;42.690;23.356;2023-05-10T05:45:52;6.10;;;3.93;;
36391;SDS011;22639;42.690;23.356;2023-05-10T05:48:18;5.00;;;3.23;;
36391;SDS011;22639;42.690;23.356;2023-05-10T05:50:44;7.33;;;4.57;;
36391;SDS011;22639;42.690;23.356;2023-05-10T05:53:11;4.60;;;3.27;;
36391;SDS011;22639;42.690;23.356;2023-05-10T05:55:36;5.07;;;3.10;;
36391;SDS011;22639;42.690;23.356;2023-05-10T05:58:02;6.73;;;4.57;;
36391;SDS011;22639;42.690;23.356;2023-05-10T06:00:30;4.63;;;3.57;;
36391;SDS011;22639;42.690;23.356;2023-05-10T06:02:55;12.77;;;4.97;;
36391;SDS011;22639;42.690;23.356;2023-05-10T06:05:23;5.93;;;4.30;;
36391;SDS011;22639;42.690;23.356;2023-05-10T06:07:49;4.17;;;3.13;;
36391;SDS011;22639;42.690;23.356;2023-05-10T06:10:14;7.93;;;5.27;;
36391;SDS011;22639;42.690;23.356;2023-05-10T06:12:39;6.30;;;3.83;;
36391;SDS011;22639;42.690;23.356;2023-05-10T06:15:05;8.37;;;5.23;;
36391;SDS011;22639;42.690;23.356;2023-05-10T06:17:30;3.80;;;3.47;;
36391;SDS011;22639;42.690;23.356;2023-05-10T06:19:56;5.97;;;4.17;;
36391;SDS011;22639;42.690;23.356;2023-05-10T06:22:21;8.07;;;4.53;;
36391;SDS011;22639;42.690;23.356;2023-05-10T06:24:49;5.40;;;3.33;;
36391;SDS011;22639;42.690;23.356;2023-05-10T06:27:15;3.07;;;2.23;;
36391;SDS011;22639;42.690;23.356;2023-05-10T06:29:41;3.83;;;3.03;;
36391;SDS011;22639;42.690;23.356;2023-05-10T06:32:06;6.33;;;4.40;;
36391;SDS011;22639;42.690;23.356;2023-05-10T06:34:34;7.97;;;5.80;;
36391;SDS011;22639;42.690;23.356;2023-05-10T06:36:59;5.73;;;4.30;;
36391;SDS011;22639;42.690;23.356;2023-05-10T06:39:24;4.80;;;3.80;;
36391;SDS011;22639;42.690;23.356;2023-05-10T06:41:50;4.47;;;3.50;;
36391;SDS011;22639;42.690;23.356;2023-05-10T06:44:15;3.10;;;1.93;;
36391;SDS011;22639;42.690;23.356;2023-05-10T06:46:40;4.53;;;3.43;;
36391;SDS011;22639;42.690;23.356;2023-05-10T06:49:07;6.40;;;4.13;;
36391;SDS011;22639;42.690;23.356;2023-05-10T06:51:33;6.70;;;4.37;;
36391;SDS011;22639;42.690;23.356;2023-05-10T06:53:58;5.93;;;3.73;;
36391;SDS011;22639;42.690;23.356;2023-05-10T06:56:23;6.03;;;4.30;;
36391;SDS011;22639;42.690;23.356;2023-05-10T06:58:49;7.50;;;5.53;;
36391;SDS011;22639;42.690;23.356;2023-05-10T07:01:14;4.10;;;3.57;;
36391;SDS011;22639;42.690;23.356;2023-05-10T07:03:39;4.97;;;3.73;;
36391;SDS011;22639;42.690;23.356;2023-05-10T07:06:05;4.67;;;3.27;;
36391;SDS011;22639;42.690;23.356;2023-05-10T07:08:32;6.47;;;4.03;;
36391;SDS011;22639;42.690;23.356;2023-05-10T07:11:01;7.70;;;4.80;;
36391;SDS011;22639;42.690;23.356;2023-05-10T07:13:26;6.17;;;5.57;;
36391;SDS011;22639;42.690;23.356;2023-05-10T07:15:51;4.40;;;3.53;;
36391;SDS011;22639;42.690;23.356;2023-05-10T07:18:17;6.43;;;3.77;;
36391;SDS011;22639;42.690;23.356;2023-05-10T07:20:42;5.20;;;4.10;;
36391;SDS011;22639;42.690;23.356;2023-05-10T07:23:07;3.57;;;2.83;;
36391;SDS011;22639;42.690;23.356;2023-05-10T07:25:32;4.43;;;3.67;;
36391;SDS011;22639;42.690;23.356;2023-05-10T07:27:57;6.00;;;3.70;;
36391;SDS011;22639;42.690;23.356;2023-05-10T07:30:23;4.97;;;2.83;;
36391;SDS011;22639;42.690;23.356;2023-05-10T07:32:48;6.03;;;3.67;;
36391;SDS011;22639;42.690;23.356;2023-05-10T07:35:13;5.03;;;4.00;;
36391;SDS011;22639;42.690;23.356;2023-05-10T07:37:39;4.57;;;3.90;;
36391;SDS011;22639;42.690;23.356;2023-05-10T07:40:04;6.90;;;4.20;;
36391;SDS011;22639;42.690;23.356;2023-05-10T07:42:30;5.80;;;4.23;;
36391;SDS011;22639;42.690;23.356;2023-05-10T07:44:55;4.23;;;3.70;;
36391;SDS011;22639;42.690;23.356;2023-05-10T07:47:20;5.23;;;4.63;;
36391;SDS011;22639;42.690;23.356;2023-05-10T07:49:45;5.10;;;4.43;;
36391;SDS011;22639;42.690;23.356;2023-05-10T07:52:10;7.27;;;4.80;;
36391;SDS011;22639;42.690;23.356;2023-05-10T07:54:36;5.83;;;4.70;;
36391;SDS011;22639;42.690;23.356;2023-05-10T07:57:02;7.40;;;5.57;;
36391;SDS011;22639;42.690;23.356;2023-05-10T07:59:27;7.77;;;5.20;;
36391;SDS011;22639;42.690;23.356;2023-05-10T08:01:52;5.50;;;4.57;;
36391;SDS011;22639;42.690;23.356;2023-05-10T08:04:18;6.70;;;6.00;;
36391;SDS011;22639;42.690;23.356;2023-05-10T08:06:43;9.97;;;6.40;;
36391;SDS011;22639;42.690;23.356;2023-05-10T08:09:08;7.60;;;4.80;;
36391;SDS011;22639;42.690;23.356;2023-05-10T08:11:33;6.27;;;5.10;;
36391;SDS011;22639;42.690;23.356;2023-05-10T08:13:59;5.63;;;3.90;;
36391;SDS011;22639;42.690;23.356;2023-05-10T08:16:24;6.87;;;4.90;;
36391;SDS011;22639;42.690;23.356;2023-05-10T08:18:49;5.70;;;3.60;;
36391;SDS011;22639;42.690;23.356;2023-05-10T08:21:15;5.53;;;4.00;;
36391;SDS011;22639;42.690;23.356;2023-05-10T08:23:41;6.47;;;5.27;;
36391;SDS011;22639;42.690;23.356;2023-05-10T08:26:06;4.67;;;4.17;;
36391;SDS011;22639;42.690;23.356;2023-05-10T08:28:31;8.53;;;6.00;;
36391;SDS011;22639;42.690;23.356;2023-05-10T08:30:57;6.73;;;4.83;;
36391;SDS011;22639;42.690;23.356;2023-05-10T08:33:22;7.60;;;5.67;;
36391;SDS011;22639;42.690;23.356;2023-05-10T08:35:47;6.00;;;4.13;;
36391;SDS011;22639;42.690;23.356;2023-05-10T08:38:12;6.67;;;4.73;;
36391;SDS011;22639;42.690;23.356;2023-05-10T08:40:38;8.07;;;4.60;;
36391;SDS011;22639;42.690;23.356;2023-05-10T08:43:05;4.97;;;4.40;;
36391;SDS011;22639;42.690;23.356;2023-05-10T08:45:36;5.13;;;4.20;;
36391;SDS011;22639;42.690;23.356;2023-05-10T08:48:02;5.50;;;4.77;;
36391;SDS011;22639;42.690;23.356;2023-05-10T08:50:29;6.43;;;4.87;;
36391;SDS011;22639;42.690;23.356;2023-05-10T08:52:55;7.77;;;5.50;;
36391;SDS011;22639;42.690;23.356;2023-05-10T08:55:24;7.27;;;4.60;;
36391;SDS011;22639;42.690;23.356;2023-05-10T08:57:49;5.97;;;3.63;;
36391;SDS011;22639;42.690;23.356;2023-05-10T09:00:14;9.47;;;4.83;;
36391;SDS011;22639;42.690;23.356;2023-05-10T09:02:40;8.70;;;4.67;;
36391;SDS011;22639;42.690;23.356;2023-05-10T09:05:06;6.03;;;4.70;;
36391;SDS011;22639;42.690;23.356;2023-05-10T09:07:32;5.10;;;4.47;;
36391;SDS011;22639;42.690;23.356;2023-05-10T09:09:57;5.13;;;4.30;;
36391;SDS011;22639;42.690;23.356;2023-05-10T09:12:24;7.63;;;4.63;;
36391;SDS011;22639;42.690;23.356;2023-05-10T09:14:50;5.00;;;4.43;;
36391;SDS011;22639;42.690;23.356;2023-05-10T09:17:16;6.97;;;5.97;;
36391;SDS011;22639;42.690;23.356;2023-05-10T09:19:41;11.77;;;5.63;;
36391;SDS011;22639;42.690;23.356;2023-05-10T09:22:06;7.17;;;5.50;;
36391;SDS011;22639;42.690;23.356;2023-05-10T09:24:31;9.57;;;6.37;;
36391;SDS011;22639;42.690;23.356;2023-05-10T09:26:57;5.33;;;4.83;;
36391;SDS011;22639;42.690;23.356;2023-05-10T09:29:23;9.60;;;5.60;;
36391;SDS011;22639;42.690;23.356;2023-05-10T09:31:49;8.33;;;5.77;;
36391;SDS011;22639;42.690;23.356;2023-05-10T09:34:20;6.70;;;4.97;;
36391;SDS011;22639;42.690;23.356;2023-05-10T09:36:55;8.10;;;4.77;;
36391;SDS011;22639;42.690;23.356;2023-05-10T09:39:29;11.43;;;6.83;;
36391;SDS011;22639;42.690;23.356;2023-05-10T09:41:55;6.53;;;4.93;;
36391;SDS011;22639;42.690;23.356;2023-05-10T09:44:20;8.17;;;7.03;;
36391;SDS011;22639;42.690;23.356;2023-05-10T09:46:48;9.23;;;7.77;;
36391;SDS011;22639;42.690;23.356;2023-05-10T09:49:14;12.07;;;5.80;;
36391;SDS011;22639;42.690;23.356;2023-05-10T09:51:39;5.37;;;4.80;;
36391;SDS011;22639;42.690;23.356;2023-05-10T09:54:15;7.37;;;5.47;;
36391;SDS011;22639;42.690;23.356;2023-05-10T09:56:41;5.83;;;4.80;;
36391;SDS011;22639;42.690;23.356;2023-05-10T09:59:07;6.97;;;4.30;;
36391;SDS011;22639;42.690;23.356;2023-05-10T10:01:33;4.17;;;3.77;;
36391;SDS011;22639;42.690;23.356;2023-05-10T10:03:59;5.23;;;4.10;;
36391;SDS011;22639;42.690;23.356;2023-05-10T10:06:27;6.37;;;4.63;;
36391;SDS011;22639;42.690;23.356;2023-05-10T10:08:53;5.50;;;5.00;;
36391;SDS011;22639;42.690;23.356;2023-05-10T10:11:19;6.03;;;5.40;;
36391;SDS011;22639;42.690;23.356;2023-05-10T10:13:44;4.70;;;4.30;;
36391;SDS011;22639;42.690;23.356;2023-05-10T10:16:09;4.97;;;4.00;;
36391;SDS011;22639;42.690;23.356;2023-05-10T10:18:38;7.53;;;5.50;;
36391;SDS011;22639;42.690;23.356;2023-05-10T10:21:06;6.10;;;4.57;;
36391;SDS011;22639;42.690;23.356;2023-05-10T10:23:33;5.27;;;4.20;;
36391;SDS011;22639;42.690;23.356;2023-05-10T10:25:58;6.00;;;4.30;;
36391;SDS011;22639;42.690;23.356;2023-05-10T10:28:32;6.03;;;4.13;;
36391;SDS011;22639;42.690;23.356;2023-05-10T10:31:02;3.93;;;3.63;;
36391;SDS011;22639;42.690;23.356;2023-05-10T10:36:17;6.40;;;4.40;;
36391;SDS011;22639;42.690;23.356;2023-05-10T10:49:26;5.83;;;3.40;;
36391;SDS011;22639;42.690;23.356;2023-05-10T10:54:36;8.40;;;4.57;;
36391;SDS011;22639;42.690;23.356;2023-05-10T10:57:13;7.30;;;4.63;;
36391;SDS011;22639;42.690;23.356;2023-05-10T10:59:42;4.70;;;4.20;;
36391;SDS011;22639;42.690;23.356;2023-05-10T11:04:55;6.97;;;5.03;;
36391;SDS011;22639;42.690;23.356;2023-05-10T11:07:20;5.27;;;4.40;;
36391;SDS011;22639;42.690;23.356;2023-05-10T11:09:46;5.40;;;4.33;;
36391;SDS011;22639;42.690;23.356;2023-05-10T11:12:11;5.10;;;4.60;;
36391;SDS011;22639;42.690;23.356;2023-05-10T11:14:37;4.60;;;3.80;;
36391;SDS011;22639;42.690;23.356;2023-05-10T11:17:02;6.37;;;4.47;;
36391;SDS011;22639;42.690;23.356;2023-05-10T11:20:02;4.77;;;4.13;;
36391;SDS011;22639;42.690;23.356;2023-05-10T11:22:28;6.03;;;4.57;;
36391;SDS011;22639;42.690;23.356;2023-05-10T11:24:57;4.50;;;4.10;;
36391;SDS011;22639;42.690;23.356;2023-05-10T11:27:23;9.10;;;5.13;;
36391;SDS011;22639;42.690;23.356;2023-05-10T11:29:51;5.95;;;4.80;;
36391;SDS011;22639;42.690;23.356;2023-05-10T11:32:16;4.65;;;3.85;;
36391;SDS011;22639;42.690;23.356;2023-05-10T11:34:41;5.80;;;5.20;;
36391;SDS011;22639;42.690;23.356;2023-05-10T11:37:07;4.50;;;4.10;;
36391;SDS011;22639;42.690;23.356;2023-05-10T11:39:32;4.53;;;4.13;;
36391;SDS011;22639;42.690;23.356;2023-05-10T11:41:58;5.50;;;4.43;;
36391;SDS011;22639;42.690;23.356;2023-05-10T11:44:28;8.30;;;5.70;;
36391;SDS011;22639;42.690;23.356;2023-05-10T11:46:53;6.27;;;4.43;;
36391;SDS011;22639;42.690;23.356;2023-05-10T11:49:19;5.63;;;4.53;;
36391;SDS011;22639;42.690;23.356;2023-05-10T11:51:45;6.60;;;4.53;;
36391;SDS011;22639;42.690;23.356;2023-05-10T11:54:10;6.90;;;4.70;;
36391;SDS011;22639;42.690;23.356;2023-05-10T11:56:40;6.50;;;5.63;;
36391;SDS011;22639;42.690;23.356;2023-05-10T11:59:05;6.83;;;5.50;;
36391;SDS011;22639;42.690;23.356;2023-05-10T12:01:30;5.00;;;4.47;;
36391;SDS011;22639;42.690;23.356;2023-05-10T12:03:56;6.97;;;5.33;;
36391;SDS011;22639;42.690;23.356;2023-05-10T12:06:26;6.47;;;5.13;;
36391;SDS011;22639;42.690;23.356;2023-05-10T12:08:51;5.53;;;5.03;;
36391;SDS011;22639;42.690;23.356;2023-05-10T12:11:18;5.50;;;4.93;;
36391;SDS011;22639;42.690;23.356;2023-05-10T12:13:44;5.60;;;4.80;;
36391;SDS011;22639;42.690;23.356;2023-05-10T12:16:15;8.10;;;4.70;;
36391;SDS011;22639;42.690;23.356;2023-05-10T12:18:41;6.93;;;4.43;;
36391;SDS011;22639;42.690;23.356;2023-05-10T12:21:07;7.87;;;5.80;;
36391;SDS011;22639;42.690;23.356;2023-05-10T12:23:34;8.88;;;5.70;;
36391;SDS011;22639;42.690;23.356;2023-05-10T12:26:02;8.07;;;5.80;;
36391;SDS011;22639;42.690;23.356;2023-05-10T12:28:30;5.40;;;4.80;;
36391;SDS011;22639;42.690;23.356;2023-05-10T12:30:55;6.03;;;4.87;;
36391;SDS011;22639;42.690;23.356;2023-05-10T12:33:22;7.87;;;5.93;;
36391;SDS011;22639;42.690;23.356;2023-05-10T12:35:58;7.03;;;5.40;;
36391;SDS011;22639;42.690;23.356;2023-05-10T12:40:49;5.30;;;4.80;;
36391;SDS011;22639;42.690;23.356;2023-05-10T12:43:15;6.50;;;4.50;;
36391;SDS011;22639;42.690;23.356;2023-05-10T12:45:40;7.20;;;5.43;;
36391;SDS011;22639;42.690;23.356;2023-05-10T12:48:05;7.67;;;6.07;;
36391;SDS011;22639;42.690;23.356;2023-05-10T12:50:30;7.00;;;4.97;;
36391;SDS011;22639;42.690;23.356;2023-05-10T12:52:56;8.80;;;5.80;;
36391;SDS011;22639;42.690;23.356;2023-05-10T12:55:21;5.83;;;4.83;;
36391;SDS011;22639;42.690;23.356;2023-05-10T12:57:46;6.13;;;4.23;;
36391;SDS011;22639;42.690;23.356;2023-05-10T13:00:11;4.93;;;3.20;;
36391;SDS011;22639;42.690;23.356;2023-05-10T13:02:37;5.90;;;5.13;;
36391;SDS011;22639;42.690;23.356;2023-05-10T13:05:02;6.47;;;4.40;;
36391;SDS011;22639;42.690;23.356;2023-05-10T13:07:27;6.20;;;5.10;;
36391;SDS011;22639;42.690;23.356;2023-05-10T13:09:53;5.13;;;4.53;;
36391;SDS011;22639;42.690;23.356;2023-05-10T13:12:18;5.23;;;4.73;;
36391;SDS011;22639;42.690;23.356;2023-05-10T13:14:43;5.33;;;4.70;;
36391;SDS011;22639;42.690;23.356;2023-05-10T13:17:08;6.63;;;4.93;;
36391;SDS011;22639;42.690;23.356;2023-05-10T13:19:34;3.97;;;3.57;;
36391;SDS011;22639;42.690;23.356;2023-05-10T13:21:59;7.17;;;4.10;;
36391;SDS011;22639;42.690;23.356;2023-05-10T13:24:24;5.20;;;4.07;;
36391;SDS011;22639;42.690;23.356;2023-05-10T13:26:50;9.90;;;4.60;;
36391;SDS011;22639;42.690;23.356;2023-05-10T13:29:15;5.20;;;4.33;;
36391;SDS011;22639;42.690;23.356;2023-05-10T13:31:42;5.00;;;3.70;;
36391;SDS011;22639;42.690;23.356;2023-05-10T13:34:08;5.00;;;4.13;;
36391;SDS011;22639;42.690;23.356;2023-05-10T13:36:33;5.93;;;5.33;;
36391;SDS011;22639;42.690;23.356;2023-05-10T13:38:58;6.40;;;3.90;;
36391;SDS011;22639;42.690;23.356;2023-05-10T13:41:26;7.47;;;5.27;;
36391;SDS011;22639;42.690;23.356;2023-05-10T13:43:51;4.63;;;3.60;;
36391;SDS011;22639;42.690;23.356;2023-05-10T13:46:16;5.37;;;4.33;;
36391;SDS011;22639;42.690;23.356;2023-05-10T13:48:41;6.73;;;4.33;;
36391;SDS011;22639;42.690;23.356;2023-05-10T13:51:07;7.20;;;5.63;;
36391;SDS011;22639;42.690;23.356;2023-05-10T13:53:32;6.93;;;5.53;;
36391;SDS011;22639;42.690;23.356;2023-05-10T13:59:00;5.77;;;4.67;;
36391;SDS011;22639;42.690;23.356;2023-05-10T14:01:26;4.83;;;3.47;;
36391;SDS011;22639;42.690;23.356;2023-05-10T14:03:51;5.77;;;5.17;;
36391;SDS011;22639;42.690;23.356;2023-05-10T14:06:16;6.47;;;4.97;;
36391;SDS011;22639;42.690;23.356;2023-05-10T14:08:42;6.70;;;5.20;;
36391;SDS011;22639;42.690;23.356;2023-05-10T14:11:07;5.40;;;4.33;;
36391;SDS011;22639;42.690;23.356;2023-05-10T14:13:33;6.13;;;5.37;;
36391;SDS011;22639;42.690;23.356;2023-05-10T14:15:58;6.07;;;4.87;;
36391;SDS011;22639;42.690;23.356;2023-05-10T14:18:25;5.57;;;4.50;;
36391;SDS011;22639;42.690;23.356;2023-05-10T14:20:51;4.83;;;4.33;;
36391;SDS011;22639;42.690;23.356;2023-05-10T14:23:16;6.10;;;4.63;;
36391;SDS011;22639;42.690;23.356;2023-05-10T14:25:41;5.87;;;4.50;;
36391;SDS011;22639;42.690;23.356;2023-05-10T14:28:06;7.87;;;5.37;;
36391;SDS011;22639;42.690;23.356;2023-05-10T14:30:32;6.33;;;4.90;;
36391;SDS011;22639;42.690;23.356;2023-05-10T14:33:01;8.70;;;5.00;;
36391;SDS011;22639;42.690;23.356;2023-05-10T14:35:27;6.17;;;5.33;;
36391;SDS011;22639;42.690;23.356;2023-05-10T14:37:52;6.30;;;5.43;;
36391;SDS011;22639;42.690;23.356;2023-05-10T14:40:18;8.00;;;5.37;;
36391;SDS011;22639;42.690;23.356;2023-05-10T14:42:45;6.57;;;4.73;;
36391;SDS011;22639;42.690;23.356;2023-05-10T14:45:26;4.90;;;3.93;;
36391;SDS011;22639;42.690;23.356;2023-05-10T14:47:52;6.90;;;5.27;;
36391;SDS011;22639;42.690;23.356;2023-05-10T14:50:17;5.37;;;3.90;;
36391;SDS011;22639;42.690;23.356;2023-05-10T14:55:45;5.13;;;4.53;;
36391;SDS011;22639;42.690;23.356;2023-05-10T14:58:10;7.40;;;4.50;;
36391;SDS011;22639;42.690;23.356;2023-05-10T15:00:35;5.87;;;4.50;;
36391;SDS011;22639;42.690;23.356;2023-05-10T15:03:01;7.20;;;5.33;;
36391;SDS011;22639;42.690;23.356;2023-05-10T15:05:26;5.60;;;5.03;;
36391;SDS011;22639;42.690;23.356;2023-05-10T15:07:54;5.70;;;5.00;;
36391;SDS011;22639;42.690;23.356;2023-05-10T15:10:19;4.93;;;4.03;;